createdAt,value
2023-02-16T00:02:40.434Z,2.60
2023-02-16T00:05:33.007Z,2.60
2023-02-16T00:08:21.051Z,2.60
2023-02-16T00:11:44.317Z,2.60
2023-02-16T00:14:34.449Z,2.60
2023-02-16T00:17:22.354Z,2.60
2023-02-16T00:20:16.095Z,2.60
2023-02-16T00:23:06.657Z,2.60
2023-02-16T00:25:54.517Z,2.50
2023-02-16T00:28:42.855Z,2.50
2023-02-16T00:31:32.891Z,2.50
2023-02-16T00:34:30.236Z,2.50
2023-02-16T00:37:18.188Z,2.50
2023-02-16T00:40:08.714Z,2.50
2023-02-16T00:42:57.590Z,2.50
2023-02-16T00:45:46.056Z,2.50
2023-02-16T00:48:35.671Z,2.50
2023-02-16T00:51:26.012Z,2.50
2023-02-16T00:54:14.822Z,2.50
2023-02-16T00:57:04.122Z,2.40
2023-02-16T00:59:59.115Z,2.40
2023-02-16T01:02:49.784Z,2.30
2023-02-16T01:05:37.716Z,2.40
2023-02-16T01:08:44.433Z,2.40
2023-02-16T01:11:32.361Z,2.40
2023-02-16T01:14:23.150Z,2.40
2023-02-16T01:17:11.582Z,2.50
2023-02-16T01:19:59.468Z,2.50
2023-02-16T01:22:47.431Z,2.50
2023-02-16T01:25:36.467Z,2.60
2023-02-16T01:28:26.638Z,2.70
2023-02-16T01:31:18.669Z,2.60
2023-02-16T01:34:06.582Z,2.60
2023-02-16T01:36:54.484Z,2.60
2023-02-16T01:39:42.350Z,2.50
2023-02-16T01:42:37.607Z,2.50
2023-02-16T01:45:33.590Z,2.40
2023-02-16T01:48:27.261Z,2.40
2023-02-16T01:51:19.925Z,2.40
2023-02-16T01:54:14.516Z,2.40
2023-02-16T01:57:06.890Z,2.50
2023-02-16T02:00:12.605Z,2.50
2023-02-16T02:03:19.424Z,2.50
2023-02-16T02:06:09.922Z,2.50
2023-02-16T02:09:01.225Z,2.40
2023-02-16T02:11:55.675Z,2.40
2023-02-16T02:14:45.494Z,2.50
2023-02-16T02:17:34.217Z,2.50
2023-02-16T02:20:48.365Z,2.50
2023-02-16T02:23:47.946Z,2.50
2023-02-16T02:27:00.572Z,2.50
2023-02-16T02:30:06.164Z,2.50
2023-02-16T02:33:13.997Z,2.40
2023-02-16T02:36:16.791Z,2.40
2023-02-16T02:39:20.010Z,2.40
2023-02-16T02:42:14.738Z,2.40
2023-02-16T02:45:08.293Z,2.50
2023-02-16T02:47:56.190Z,2.50
2023-02-16T02:51:09.982Z,2.50
2023-02-16T02:54:22.254Z,2.50
2023-02-16T02:57:34.818Z,2.50
2023-02-16T03:00:45.089Z,2.40
2023-02-16T03:03:37.118Z,2.40
2023-02-16T03:06:28.475Z,2.40
2023-02-16T03:09:20.743Z,2.30
2023-02-16T03:12:29.379Z,2.40
2023-02-16T03:15:18.143Z,2.30
2023-02-16T03:18:28.489Z,2.40
2023-02-16T03:21:35.050Z,2.40
2023-02-16T03:24:43.434Z,2.40
2023-02-16T03:27:54.002Z,2.40
2023-02-16T03:30:43.384Z,2.40
2023-02-16T03:33:32.081Z,2.30
2023-02-16T03:36:19.938Z,2.40
2023-02-16T03:39:08.755Z,2.30
2023-02-16T03:41:57.990Z,2.20
2023-02-16T03:44:47.101Z,2.40
2023-02-16T03:47:36.007Z,2.30
2023-02-16T03:50:27.283Z,2.30
2023-02-16T03:53:17.466Z,2.30
2023-02-16T03:56:06.419Z,2.30
2023-02-16T03:58:54.310Z,2.30
2023-02-16T04:01:43.575Z,2.30
2023-02-16T04:04:31.541Z,2.20
2023-02-16T04:07:19.365Z,2.20
2023-02-16T04:10:10.289Z,2.20
2023-02-16T04:12:57.229Z,2.20
2023-02-16T04:15:45.048Z,2.20
2023-02-16T04:18:34.246Z,2.20
2023-02-16T04:21:22.097Z,2.20
2023-02-16T04:24:10.369Z,2.20
2023-02-16T04:26:58.255Z,2.30
2023-02-16T04:29:46.018Z,2.20
2023-02-16T04:32:34.158Z,2.20
2023-02-16T04:35:23.844Z,2.20
2023-02-16T04:38:14.520Z,2.20
2023-02-16T04:41:03.068Z,2.20
2023-02-16T04:43:51.012Z,2.10
2023-02-16T04:46:38.788Z,2.10
2023-02-16T04:49:26.658Z,2.10
2023-02-16T04:52:15.937Z,2.00
2023-02-16T04:55:07.696Z,2.10
2023-02-16T04:57:58.255Z,2.10
2023-02-16T05:00:46.446Z,2.20
2023-02-16T05:03:34.614Z,2.20
2023-02-16T05:06:22.700Z,2.20
2023-02-16T05:09:14.388Z,2.20
2023-02-16T05:12:19.804Z,2.20
2023-02-16T05:15:10.572Z,2.20
2023-02-16T05:17:58.417Z,2.20
2023-02-16T05:21:04.174Z,2.20
2023-02-16T05:23:52.170Z,2.20
2023-02-16T05:26:41.871Z,2.20
2023-02-16T05:29:29.792Z,2.10
2023-02-16T05:32:18.327Z,2.10
2023-02-16T05:35:06.808Z,2.10
2023-02-16T05:37:54.617Z,2.10
2023-02-16T05:40:42.447Z,2.10
2023-02-16T05:43:31.662Z,2.20
2023-02-16T05:46:22.497Z,2.10
2023-02-16T05:49:10.819Z,2.10
2023-02-16T05:51:58.657Z,2.10
2023-02-16T05:54:46.774Z,2.10
2023-02-16T05:57:35.698Z,2.10
2023-02-16T06:00:25.247Z,2.10
2023-02-16T06:03:15.026Z,2.10
2023-02-16T06:06:04.834Z,2.00
2023-02-16T06:08:52.664Z,2.00
2023-02-16T06:11:43.507Z,2.00
2023-02-16T06:14:31.483Z,2.00
2023-02-16T06:17:20.891Z,2.00
2023-02-16T06:20:09.989Z,1.90
2023-02-16T06:22:57.773Z,1.90
2023-02-16T06:25:49.272Z,2.00
2023-02-16T06:28:37.070Z,2.00
2023-02-16T06:31:25.164Z,2.00
2023-02-16T06:34:14.528Z,2.00
2023-02-16T06:37:02.350Z,2.00
2023-02-16T06:39:50.168Z,2.00
2023-02-16T06:42:40.771Z,2.00
2023-02-16T06:45:28.609Z,2.00
2023-02-16T06:48:16.441Z,2.00
2023-02-16T06:51:06.404Z,1.90
2023-02-16T06:53:54.950Z,2.00
2023-02-16T06:56:43.012Z,2.30
2023-02-16T06:59:30.799Z,2.10
2023-02-16T07:02:20.570Z,2.00
2023-02-16T07:05:08.800Z,1.90
2023-02-16T07:07:58.014Z,1.80
2023-02-16T07:10:50.099Z,1.80
2023-02-16T07:13:38.386Z,1.70
2023-02-16T07:16:27.648Z,1.60
2023-02-16T07:19:15.827Z,1.50
2023-02-16T07:22:05.365Z,1.50
2023-02-16T07:24:57.245Z,1.50
2023-02-16T07:27:45.100Z,1.70
2023-02-16T07:30:33.158Z,1.60
2023-02-16T07:33:21.503Z,1.60
2023-02-16T07:36:10.946Z,1.70
2023-02-16T07:38:58.848Z,1.70
2023-02-16T07:41:47.996Z,1.80
2023-02-16T07:44:35.863Z,1.80
2023-02-16T07:47:23.739Z,1.80
2023-02-16T07:50:12.625Z,1.80
2023-02-16T07:53:02.625Z,1.90
2023-02-16T07:55:50.419Z,1.90
2023-02-16T07:58:39.544Z,2.00
2023-02-16T08:01:28.118Z,2.10
2023-02-16T08:04:16.061Z,2.10
2023-02-16T08:07:04.093Z,2.00
2023-02-16T08:09:52.161Z,2.00
2023-02-16T08:12:39.960Z,2.10
2023-02-16T08:15:29.131Z,2.20
2023-02-16T08:18:16.987Z,2.20
2023-02-16T08:21:13.844Z,2.20
2023-02-16T08:24:04.492Z,2.20
2023-02-16T08:26:53.754Z,2.20
2023-02-16T08:29:42.490Z,2.20
2023-02-16T08:32:31.672Z,2.20
2023-02-16T08:35:20.355Z,2.10
2023-02-16T08:38:09.051Z,2.20
2023-02-16T08:40:56.904Z,2.10
2023-02-16T08:43:44.776Z,2.10
2023-02-16T08:46:34.177Z,2.10
2023-02-16T08:49:24.899Z,2.20
2023-02-16T08:52:13.300Z,2.30
2023-02-16T08:55:01.459Z,2.40
2023-02-16T08:57:49.464Z,2.50
2023-02-16T09:00:38.553Z,2.50
2023-02-16T09:03:26.549Z,2.60
2023-02-16T09:06:17.064Z,2.60
2023-02-16T09:09:06.050Z,2.70
2023-02-16T09:11:54.331Z,2.80
2023-02-16T09:14:42.415Z,2.80
2023-02-16T09:17:31.153Z,2.80
2023-02-16T09:20:20.359Z,2.80
2023-02-16T09:23:12.271Z,2.80
2023-02-16T09:26:02.271Z,2.80
2023-02-16T09:28:53.692Z,2.90
2023-02-16T09:31:42.520Z,3.00
2023-02-16T09:34:30.371Z,3.00
2023-02-16T09:37:18.186Z,3.00
2023-02-16T09:40:08.955Z,3.00
2023-02-16T09:43:06.850Z,3.00
2023-02-16T09:45:58.609Z,3.10
2023-02-16T09:48:49.359Z,3.10
2023-02-16T09:51:40.997Z,3.10
2023-02-16T09:54:36.220Z,3.10
2023-02-16T09:57:38.984Z,3.20
2023-02-16T10:00:39.724Z,3.20
2023-02-16T10:03:41.220Z,3.20
2023-02-16T10:06:36.255Z,3.30
2023-02-16T10:09:25.998Z,3.20
2023-02-16T10:12:20.592Z,3.30
2023-02-16T10:15:16.322Z,3.30
2023-02-16T10:18:09.261Z,3.30
2023-02-16T10:21:01.844Z,3.40
2023-02-16T10:23:53.318Z,3.40
2023-02-16T10:26:49.127Z,3.40
2023-02-16T10:29:37.041Z,3.50
2023-02-16T10:32:35.459Z,3.50
2023-02-16T10:35:32.306Z,3.60
2023-02-16T10:38:29.554Z,3.60
2023-02-16T10:41:26.099Z,3.60
2023-02-16T10:44:20.784Z,3.60
2023-02-16T10:47:32.774Z,3.70
2023-02-16T10:50:25.277Z,3.70
2023-02-16T10:53:18.317Z,3.70
2023-02-16T10:56:28.163Z,3.70
2023-02-16T10:59:20.585Z,3.80
2023-02-16T11:02:20.170Z,3.80
2023-02-16T11:05:32.164Z,3.80
2023-02-16T11:08:20.505Z,4.00
2023-02-16T11:11:11.437Z,4.00
2023-02-16T11:14:03.254Z,4.00
2023-02-16T11:17:08.504Z,4.00
2023-02-16T11:20:03.935Z,4.10
2023-02-16T11:22:53.072Z,4.00
2023-02-16T11:25:41.434Z,4.00
2023-02-16T11:28:32.900Z,4.00
2023-02-16T11:31:26.303Z,4.00
2023-02-16T11:34:25.535Z,4.10
2023-02-16T11:37:19.854Z,4.10
2023-02-16T11:40:24.160Z,4.20
2023-02-16T11:43:20.046Z,4.30
2023-02-16T11:46:14.657Z,4.30
2023-02-16T11:49:29.411Z,4.40
2023-02-16T11:52:27.031Z,4.50
2023-02-16T11:55:26.824Z,4.50
2023-02-16T11:58:17.357Z,4.60
2023-02-16T12:01:19.069Z,4.60
2023-02-16T12:04:15.847Z,4.70
2023-02-16T12:07:15.479Z,4.70
2023-02-16T12:10:10.735Z,4.80
2023-02-16T12:13:04.838Z,4.80
2023-02-16T12:16:00.058Z,4.80
2023-02-16T12:19:05.719Z,4.80
2023-02-16T12:22:01.039Z,4.80
2023-02-16T12:24:59.041Z,4.80
2023-02-16T12:27:51.548Z,4.70
2023-02-16T12:30:55.224Z,4.60
2023-02-16T12:33:51.711Z,4.60
2023-02-16T12:36:52.156Z,4.60
2023-02-16T12:39:49.285Z,4.60
2023-02-16T12:42:51.968Z,4.70
2023-02-16T12:45:44.967Z,4.70
2023-02-16T12:48:41.796Z,4.70
2023-02-16T12:51:36.424Z,4.70
2023-02-16T12:54:29.764Z,4.70
2023-02-16T12:57:22.245Z,4.70
2023-02-16T13:00:19.855Z,4.70
2023-02-16T13:03:23.533Z,4.70
2023-02-16T13:06:24.998Z,4.70
2023-02-16T13:09:24.499Z,4.70
2023-02-16T13:12:26.990Z,4.80
2023-02-16T13:15:20.484Z,4.80
2023-02-16T13:18:18.965Z,4.80
2023-02-16T13:21:11.833Z,4.80
2023-02-16T13:24:09.008Z,4.80
2023-02-16T13:27:06.739Z,4.80
2023-02-16T13:30:37.213Z,4.90
2023-02-16T13:33:44.996Z,5.00
2023-02-16T13:36:46.952Z,5.20
2023-02-16T13:39:48.014Z,5.20
2023-02-16T13:43:01.104Z,5.20
2023-02-16T13:45:53.654Z,5.60
2023-02-16T13:48:48.721Z,5.30
2023-02-16T13:51:46.349Z,5.10
2023-02-16T13:54:37.057Z,5.10
2023-02-16T13:57:58.314Z,5.00
2023-02-16T14:00:50.594Z,5.00
2023-02-16T14:03:40.038Z,5.00
2023-02-16T14:06:34.062Z,5.00
2023-02-16T14:09:50.780Z,5.00
2023-02-16T14:12:40.621Z,4.90
2023-02-16T14:15:28.636Z,4.90
2023-02-16T14:18:22.850Z,4.90
2023-02-16T14:21:27.677Z,4.90
2023-02-16T14:24:34.304Z,4.90
2023-02-16T14:27:46.069Z,4.90
2023-02-16T14:30:43.403Z,4.80
2023-02-16T14:33:42.057Z,4.80
2023-02-16T14:36:31.070Z,4.80
2023-02-16T14:39:24.717Z,4.80
2023-02-16T14:42:27.361Z,4.80
2023-02-16T14:45:53.597Z,4.90
2023-02-16T14:49:23.865Z,4.90
2023-02-16T14:52:38.036Z,4.90
2023-02-16T14:55:58.149Z,4.90
2023-02-16T14:58:56.185Z,4.80
2023-02-16T15:01:47.171Z,4.80
2023-02-16T15:04:38.249Z,4.80
2023-02-16T15:07:30.338Z,4.80
2023-02-16T15:10:26.798Z,4.80
2023-02-16T15:13:22.198Z,4.90
2023-02-16T15:16:15.250Z,4.80
2023-02-16T15:19:11.917Z,4.80
2023-02-16T15:22:10.781Z,4.90
2023-02-16T15:25:00.906Z,4.90
2023-02-16T15:27:54.736Z,4.90
2023-02-16T15:30:49.218Z,4.90
2023-02-16T15:33:38.963Z,4.90
2023-02-16T15:36:35.324Z,5.00
2023-02-16T15:39:38.504Z,5.00
2023-02-16T15:42:34.052Z,5.00
2023-02-16T15:45:30.699Z,5.00
2023-02-16T15:48:29.267Z,5.00
2023-02-16T15:51:22.166Z,5.00
2023-02-16T15:54:21.784Z,5.00
2023-02-16T15:57:19.457Z,5.10
2023-02-16T16:00:19.312Z,5.10
2023-02-16T16:03:16.626Z,5.10
2023-02-16T16:06:07.470Z,5.00
2023-02-16T16:08:55.550Z,5.00
2023-02-16T16:11:43.863Z,5.00
2023-02-16T16:14:35.261Z,5.00
2023-02-16T16:17:28.063Z,5.00
2023-02-16T16:20:28.613Z,5.00
2023-02-16T16:23:28.230Z,4.90
2023-02-16T16:26:20.306Z,5.00
2023-02-16T16:29:29.946Z,4.90
2023-02-16T16:32:21.250Z,4.90
2023-02-16T16:35:22.906Z,5.00
2023-02-16T16:38:24.849Z,5.00
2023-02-16T16:41:27.663Z,5.00
2023-02-16T16:44:33.428Z,5.00
2023-02-16T16:47:26.130Z,5.10
2023-02-16T16:50:33.245Z,5.00
2023-02-16T16:53:55.633Z,5.00
2023-02-16T16:56:43.605Z,5.00
2023-02-16T16:59:31.396Z,5.00
2023-02-16T17:02:21.961Z,5.00
2023-02-16T17:05:09.906Z,5.00
2023-02-16T17:07:57.745Z,5.00
2023-02-16T17:10:47.161Z,5.00
2023-02-16T17:13:35.151Z,4.90
2023-02-16T17:16:27.173Z,5.00
2023-02-16T17:19:16.441Z,5.00
2023-02-16T17:22:16.214Z,5.00
2023-02-16T17:25:04.640Z,5.00
2023-02-16T17:27:57.438Z,5.00
2023-02-16T17:30:45.581Z,5.00
2023-02-16T17:33:33.451Z,5.00
2023-02-16T17:36:23.512Z,5.00
2023-02-16T17:39:11.422Z,5.00
2023-02-16T17:42:00.154Z,4.90
2023-02-16T17:44:50.620Z,5.00
2023-02-16T17:47:38.732Z,5.00
2023-02-16T17:50:26.599Z,5.00
2023-02-16T17:53:15.672Z,5.00
2023-02-16T17:56:03.931Z,5.00
2023-02-16T17:58:52.539Z,5.00
2023-02-16T18:01:41.925Z,5.00
2023-02-16T18:04:29.804Z,5.00
2023-02-16T18:07:19.109Z,5.00
2023-02-16T18:10:08.359Z,5.00
2023-02-16T18:12:56.178Z,5.00
2023-02-16T18:15:47.387Z,5.00
2023-02-16T18:18:39.066Z,5.00
2023-02-16T18:21:26.952Z,5.00
2023-02-16T18:24:14.837Z,5.00
2023-02-16T18:27:02.719Z,5.00
2023-02-16T18:29:51.629Z,5.00
2023-02-16T18:32:41.747Z,5.00
2023-02-16T18:35:31.896Z,5.00
2023-02-16T18:38:21.860Z,5.10
2023-02-16T18:41:09.873Z,5.10
2023-02-16T18:43:57.804Z,5.10
2023-02-16T18:46:45.656Z,5.10
2023-02-16T18:49:33.655Z,5.10
2023-02-16T18:52:23.016Z,5.10
2023-02-16T18:55:11.823Z,5.20
2023-02-16T18:57:59.732Z,5.20
2023-02-16T19:00:48.612Z,5.20
2023-02-16T19:03:36.505Z,5.10
2023-02-16T19:06:24.485Z,5.20
2023-02-16T19:09:13.601Z,5.20
2023-02-16T19:12:01.489Z,5.10
2023-02-16T19:14:49.409Z,5.10
2023-02-16T19:17:38.541Z,5.20
2023-02-16T19:20:29.377Z,5.20
2023-02-16T19:23:17.523Z,5.30
2023-02-16T19:26:08.494Z,5.20
2023-02-16T19:28:56.452Z,5.30
2023-02-16T19:31:44.355Z,5.30
2023-02-16T19:34:33.436Z,5.30
2023-02-16T19:37:21.270Z,5.30
2023-02-16T19:40:11.167Z,5.30
2023-02-16T19:43:00.271Z,5.40
2023-02-16T19:45:48.195Z,5.30
2023-02-16T19:48:36.339Z,5.30
2023-02-16T19:51:24.511Z,5.30
2023-02-16T19:54:12.327Z,5.30
2023-02-16T19:57:00.181Z,5.30
2023-02-16T19:59:49.618Z,5.30
2023-02-16T20:02:37.487Z,5.40
2023-02-16T20:05:25.371Z,5.40
2023-02-16T20:08:13.219Z,5.40
2023-02-16T20:11:00.995Z,5.40
2023-02-16T20:13:49.224Z,5.40
2023-02-16T20:16:38.396Z,5.40
2023-02-16T20:19:26.240Z,5.40
2023-02-16T20:22:14.409Z,5.40
2023-02-16T20:25:02.450Z,5.30
2023-02-16T20:27:50.408Z,5.30
2023-02-16T20:30:38.211Z,5.40
2023-02-16T20:33:27.476Z,5.30
2023-02-16T20:36:15.602Z,5.40
2023-02-16T20:39:04.065Z,5.40
2023-02-16T20:41:52.509Z,5.30
2023-02-16T20:44:40.431Z,5.40
2023-02-16T20:47:28.348Z,5.40
2023-02-16T20:50:17.578Z,5.50
2023-02-16T20:53:05.797Z,5.50
2023-02-16T20:56:02.597Z,5.50
2023-02-16T20:58:52.609Z,5.50
2023-02-16T21:01:43.831Z,5.50
2023-02-16T21:04:32.123Z,5.50
2023-02-16T21:07:21.444Z,5.40
2023-02-16T21:10:16.728Z,5.50
2023-02-16T21:13:04.637Z,5.40
2023-02-16T21:15:53.019Z,5.40
2023-02-16T21:18:41.144Z,5.40
2023-02-16T21:21:29.030Z,5.50
2023-02-16T21:24:18.239Z,5.60
2023-02-16T21:27:06.133Z,5.40
2023-02-16T21:29:54.006Z,5.40
2023-02-16T21:32:41.918Z,5.40
2023-02-16T21:35:29.799Z,5.40
2023-02-16T21:38:17.795Z,5.40
2023-02-16T21:41:29.078Z,5.50
2023-02-16T21:44:18.192Z,5.40
2023-02-16T21:47:23.725Z,5.50
2023-02-16T21:50:11.648Z,5.50
2023-02-16T21:52:59.819Z,5.50
2023-02-16T21:56:05.605Z,5.50
2023-02-16T21:58:55.069Z,5.50
2023-02-16T22:01:44.871Z,5.50
2023-02-16T22:04:32.711Z,5.60
2023-02-16T22:07:20.601Z,5.60
2023-02-16T22:10:10.121Z,5.60
2023-02-16T22:12:58.629Z,5.60
2023-02-16T22:15:48.801Z,5.70
2023-02-16T22:18:36.772Z,5.70
2023-02-16T22:21:26.725Z,5.70
2023-02-16T22:24:16.927Z,5.80
2023-02-16T22:27:04.869Z,5.80
2023-02-16T22:29:52.806Z,5.80
2023-02-16T22:32:42.197Z,5.80
2023-02-16T22:35:30.016Z,5.90
2023-02-16T22:38:18.079Z,5.90
2023-02-16T22:41:06.939Z,5.90
2023-02-16T22:43:55.592Z,6.00
2023-02-16T22:46:43.713Z,6.00
2023-02-16T22:49:32.880Z,6.00
2023-02-16T22:52:20.831Z,6.10
2023-02-16T22:55:09.910Z,6.10
2023-02-16T22:57:57.772Z,6.10
2023-02-16T23:00:46.467Z,6.10
2023-02-16T23:03:34.350Z,6.10
2023-02-16T23:06:25.565Z,6.20
2023-02-16T23:09:16.060Z,6.20
2023-02-16T23:12:04.042Z,6.20
2023-02-16T23:14:51.993Z,6.30
2023-02-16T23:17:39.878Z,6.30
2023-02-16T23:20:27.782Z,6.30
2023-02-16T23:23:17.006Z,6.30
2023-02-16T23:26:07.208Z,6.30
2023-02-16T23:28:57.847Z,6.40
2023-02-16T23:31:47.696Z,6.40
2023-02-16T23:34:35.551Z,6.40
2023-02-16T23:37:23.399Z,6.40
2023-02-16T23:40:13.185Z,6.40
2023-02-16T23:43:01.214Z,6.40
2023-02-16T23:45:49.852Z,6.40
2023-02-16T23:48:38.168Z,6.50
2023-02-16T23:51:26.077Z,6.50
2023-02-16T23:54:13.953Z,6.50
2023-02-16T23:57:03.076Z,6.50
2023-02-16T23:59:50.928Z,6.60
